Sirius — WDA2145 — position and weather

sailwx.info

Track history (hours):
 
Tides and Currents Weather Stations Pressure Air Temp Water Temp Dewpoint Dewpoint Depression Visibility Wind Speed Wind Dir Waves Ship Positions

Sirius

Owner: TISBURY TOWING AND TRANSPORTATION INC, TISBURY, MA. More information available from US FCC via Universal Licensing System and Coast Guard Vessel Documentation Center.

Last reported at 2015-Aug-04 00:33 UTC. Time now 2015-Aug-04 01:24 UTC.
Position N 41°31' W 070°41'.

Length 19 m; draft 1.9 m.

Type: Towing. MMSI: 367181040.

Date/timePositionNaut miles runAvg speedWind from/ knotsBaromVisibWave heightAir tempDewpointWater temp
2015-Aug-04 00:33N 41°31' W 070°41'6 6.2
2015-Aug-03 23:33N 41°33' W 070°49'6 5.8
2015-Aug-03 22:31N 41°37' W 070°54'1 0.5
2015-Aug-03 20:33N 41°38' W 070°55'0 0.3
2015-Aug-03 19:22N 41°38' W 070°55'5 5.7
2015-Aug-03 18:33N 41°34' W 070°52'7 7.3
2015-Aug-03 17:33N 41°32' W 070°43'  
2015-Jul-31 21:08N 41°27' W 070°36'18 2.1
2015-Jul-31 12:26N 41°38' W 070°55'0 0.0
2015-Jul-31 11:33N 41°38' W 070°55'0 0.0
2015-Jul-31 10:33N 41°38' W 070°55'0 0.1
2015-Jul-31 09:31N 41°38' W 070°55'2 2.5
2015-Jul-31 08:33N 41°36' W 070°53'5 5.4
2015-Jul-31 07:33N 41°33' W 070°48'10 4.7
2015-Jul-31 05:21N 41°27' W 070°36'0 0.0
2015-Jul-30 03:10N 41°27' W 070°36'1 1.2
2015-Jul-30 02:34N 41°28' W 070°35'6 5.9
2015-Jul-30 01:34N 41°32' W 070°42'7 6.6
2015-Jul-30 00:33N 41°33' W 070°50'7 6.4
2015-Jul-29 23:33N 41°39' W 070°55'3 2.7
2015-Jul-29 22:34N 41°36' W 070°53'6 6.0
2015-Jul-29 21:34N 41°33' W 070°47'6 5.8
2015-Jul-29 20:34N 41°31' W 070°40'5 4.6
2015-Jul-29 19:34N 41°27' W 070°36'4 4.1
2015-Jul-29 18:31N 41°31' W 070°39'7 6.9
2015-Jul-29 17:33N 41°33' W 070°48'7 6.7
2015-Jul-29 16:34N 41°37' W 070°54'2 1.4
2015-Jul-29 15:19N 41°39' W 070°55'0 0.0
2015-Jul-29 14:33N 41°39' W 070°55'0 0.0
2015-Jul-29 13:33N 41°39' W 070°55'0 0.0
2015-Jul-29 12:33N 41°39' W 070°55'0 0.0
2015-Jul-29 11:33N 41°39' W 070°55'0 0.0
2015-Jul-29 10:33N 41°39' W 070°55'0 0.0
2015-Jul-29 09:30N 41°39' W 070°55'2 1.5
2015-Jul-29 08:27N 41°38' W 070°54'7 7.2
2015-Jul-29 07:33N 41°33' W 070°49'7 6.8
2015-Jul-29 06:34N 41°31' W 070°40'5 4.7
2015-Jul-29 05:33N 41°27' W 070°36'0 0.0
2015-Jul-29 04:33N 41°27' W 070°36'0 0.0
2015-Jul-29 03:33N 41°27' W 070°36'0 0.0
2015-Jul-29 02:32N 41°27' W 070°36'0 0.0
2015-Jul-29 01:31N 41°27' W 070°36'0 0.0
2015-Jul-29 00:33N 41°27' W 070°36'0 0.0
2015-Jul-27 22:24N 41°27' W 070°36'0 0.1
2015-Jul-27 21:33N 41°27' W 070°36'6 5.6
2015-Jul-27 20:34N 41°31' W 070°41'7 6.5
2015-Jul-27 19:33N 41°33' W 070°50'6 5.7
2015-Jul-27 18:33N 41°37' W 070°54'2 1.5
2015-Jul-27 17:33N 41°39' W 070°55'4 3.6
2015-Jul-27 16:33N 41°36' W 070°53'8 7.7
2015-Jul-27 15:34N 41°32' W 070°44'8 7.7
2015-Jul-27 14:31N 41°27' W 070°36'  
Track history (hours):
 
Tides and Currents Weather Stations Pressure Air Temp Water Temp Dewpoint Dewpoint Depression Visibility Wind Speed Wind Dir Waves Ship Positions

Sirius

Owner: TISBURY TOWING AND TRANSPORTATION INC, TISBURY, MA. More information available from US FCC via Universal Licensing System and Coast Guard Vessel Documentation Center.

Last reported at 2015-Aug-04 00:33 UTC. Time now 2015-Aug-04 01:24 UTC.
Position N 41°31' W 070°41'.

Length 19 m; draft 1.9 m.

Type: Towing. MMSI: 367181040.

Date/timePositionNaut miles runAvg speedWind from/ knotsBaromVisibWave heightAir tempDewpointWater temp
2015-Aug-04 00:33N 41°31' W 070°41'6 6.2
2015-Aug-03 23:33N 41°33' W 070°49'6 5.8
2015-Aug-03 22:31N 41°37' W 070°54'1 0.5
2015-Aug-03 20:33N 41°38' W 070°55'0 0.3
2015-Aug-03 19:22N 41°38' W 070°55'5 5.7
2015-Aug-03 18:33N 41°34' W 070°52'7 7.3
2015-Aug-03 17:33N 41°32' W 070°43'  
2015-Jul-31 21:08N 41°27' W 070°36'18 2.1
2015-Jul-31 12:26N 41°38' W 070°55'0 0.0
2015-Jul-31 11:33N 41°38' W 070°55'0 0.0
2015-Jul-31 10:33N 41°38' W 070°55'0 0.1
2015-Jul-31 09:31N 41°38' W 070°55'2 2.5
2015-Jul-31 08:33N 41°36' W 070°53'5 5.4
2015-Jul-31 07:33N 41°33' W 070°48'10 4.7
2015-Jul-31 05:21N 41°27' W 070°36'0 0.0
2015-Jul-30 03:10N 41°27' W 070°36'1 1.2
2015-Jul-30 02:34N 41°28' W 070°35'6 5.9
2015-Jul-30 01:34N 41°32' W 070°42'7 6.6
2015-Jul-30 00:33N 41°33' W 070°50'7 6.4
2015-Jul-29 23:33N 41°39' W 070°55'3 2.7
2015-Jul-29 22:34N 41°36' W 070°53'6 6.0
2015-Jul-29 21:34N 41°33' W 070°47'6 5.8
2015-Jul-29 20:34N 41°31' W 070°40'5 4.6
2015-Jul-29 19:34N 41°27' W 070°36'4 4.1
2015-Jul-29 18:31N 41°31' W 070°39'7 6.9
2015-Jul-29 17:33N 41°33' W 070°48'7 6.7
2015-Jul-29 16:34N 41°37' W 070°54'2 1.4
2015-Jul-29 15:19N 41°39' W 070°55'0 0.0
2015-Jul-29 14:33N 41°39' W 070°55'0 0.0
2015-Jul-29 13:33N 41°39' W 070°55'0 0.0
2015-Jul-29 12:33N 41°39' W 070°55'0 0.0
2015-Jul-29 11:33N 41°39' W 070°55'0 0.0
2015-Jul-29 10:33N 41°39' W 070°55'0 0.0
2015-Jul-29 09:30N 41°39' W 070°55'2 1.5
2015-Jul-29 08:27N 41°38' W 070°54'7 7.2
2015-Jul-29 07:33N 41°33' W 070°49'7 6.8
2015-Jul-29 06:34N 41°31' W 070°40'5 4.7
2015-Jul-29 05:33N 41°27' W 070°36'0 0.0
2015-Jul-29 04:33N 41°27' W 070°36'0 0.0
2015-Jul-29 03:33N 41°27' W 070°36'0 0.0
2015-Jul-29 02:32N 41°27' W 070°36'0 0.0
2015-Jul-29 01:31N 41°27' W 070°36'0 0.0
2015-Jul-29 00:33N 41°27' W 070°36'0 0.0
2015-Jul-27 22:24N 41°27' W 070°36'0 0.1
2015-Jul-27 21:33N 41°27' W 070°36'6 5.6
2015-Jul-27 20:34N 41°31' W 070°41'7 6.5
2015-Jul-27 19:33N 41°33' W 070°50'6 5.7
2015-Jul-27 18:33N 41°37' W 070°54'2 1.5
2015-Jul-27 17:33N 41°39' W 070°55'4 3.6
2015-Jul-27 16:33N 41°36' W 070°53'8 7.7
2015-Jul-27 15:34N 41°32' W 070°44'8 7.7
2015-Jul-27 14:31N 41°27' W 070°36'  

Dump ship's entire track history